Biloxi, MS

6:32 AM CDT on April 30, 2017 (GMT -0500)
Forest Cove | | Change Station
Active Advisory: Coastal Flood Advisory Active Notice: Coastal Flood Advisory

Elev 38 ft 30.44 °N, 88.90 °W | Updated 58 seconds ago

Clear
Clear
76.5 °F
Feels Like 77 °F
N
11.0
Wind Variable Wind from SE

Today
High -- | Low -- °F
--% Chance of Precip.
Yesterday
High -- | Low -- °F
Precip. -- in
Pressure 29.85 in
Visibility 10.0 miles
Clouds Clear
Heat Index 77 °F
Dew Point 73 °F
Humidity 91%
Rainfall 0.00 in
Snow Depth Not available.
6:12 AM 7:33 PM
Waxing Crescent, 22% visible
METAR KBIX 301058Z AUTO 16012G20KT 10SM CLR 25/23 A2984 RMK AO2 SLP108 T02490230
Pressure 29.85 in
Visibility 10.0 miles
Clouds Clear
Heat Index 77 °F
Dew Point 73 °F
Humidity 91%
Rainfall 0.00 in
Snow Depth Not available.
6:12 AM 7:33 PM
Waxing Crescent, 22% visible
METAR KBIX 301058Z AUTO 16012G20KT 10SM CLR 25/23 A2984 RMK AO2 SLP108 T02490230

Get Your Daily Forecast Email!

Thanks for signing up!

Be on the lookout for a verification email in your inbox.

You'll start receiving severe weather alerts in your inbox..

×

10-Day Weather Forecast

Almanac

Astronomy

Apr. 30, 2017 Rise Set
Actual Time
Civil Twilight
Nautical Twilight
Astronomical Twilight
Moon
Length of Visible Light
Length of Day
Tomorrow will be .
, % of the Moon is Illuminated

Today's Extremes

State Highs State Lows

Community

WunderPhotos

WunderBlog® & News

Nearby

Air Quality

  Air Quality AQ Index Pollutant
Not available.

Snow Depth

Station Depth Elevation

Earthquake Activity

City Distance Mag. Time & Date
Minimum magnitude displayed is 2.5.

Coastal Water Temperatures

Place Temperature

Stations

Nearby Weather Stations

Station Location Temp. Windchill Dew Point Humidity Wind Precip. Elev Updated Type
                   

Watches & Warnings

Coastal Flood Advisory
Issued: 4:08 AM CDT Apr. 30, 2017 – National Weather Service

... Coastal flood advisory remains in effect until midnight CDT
tonight...

* coastal flooding... tides 2 feet above normal today.

* Timing... astronomical high tides will be in the late morning
through early afternoon hours today.

* Impacts... moderate flooding of low lying areas and access roads
near tidal lakes... bays and inlets as well as the open coast
outside the hurricane protection levee systems.

Precautionary/preparedness actions...

A coastal flood advisory indicates that onshore winds and tides
will combine to generate flooding of low areas along the shore.